EW8974 Weather Reports


Display with metric or nautical units.
time (UTC)temp
F
wind
direction
speed
MPH
gust
MPH
rain 1hr
in
rain 24hr
in
rain mn
in
humidity
%
barometer
mb
20200125051707 39 127 0.0 0.0 0.00 0.00 0.00 82 1020.7
20200125050256 40 127 0.0 0.0 0.00 0.00 0.00 81 1020.7
20200125044710 40 127 0.0 0.0 0.00 0.00 0.00 81 1020.6
20200125043252 40 127 0.0 0.0 0.00 0.00 0.00 80 1020.4
20200125041757 40 127 0.0 0.0 0.00 0.00 0.00 80 1020.1
20200125040138 40 127 0.0 0.0 0.00 0.00 0.00 80 1020.2
20200125034743 39 127 0.0 0.0 0.00 0.00 0.00 80 1020.1
20200125033219 40 127 0.0 0.0 0.00 0.00 0.00 79 1020.1
20200125031804 40 127 0.0 0.0 0.00 0.00 0.00 80 1020.1
20200125030256 40 127 0.0 0.0 0.00 0.00 0.00 79 1019.9
20200125024647 41 127 0.0 0.0 0.00 0.00 0.00 78 1019.8
20200125023233 41 127 0.0 0.0 0.00 0.00 0.00 76 1019.7
20200125021630 42 127 0.0 0.0 0.00 0.00 0.00 75 1019.7
20200125020145 43 127 0.0 0.0 0.00 0.00 0.00 74 1019.6
20200125014744 43 127 0.0 0.0 0.00 0.00 0.00 72 1019.5
20200125013119 44 127 0.0 0.0 0.00 0.00 0.00 71 1019.5
20200125011645 44 127 0.0 0.0 0.00 0.00 0.00 68 1019.6
20200125010143 45 127 0.0 0.0 0.00 0.00 0.00 65 1019.6
20200125004606 46 127 0.0 0.0 0.00 0.00 0.00 62 1019.4
20200125003246 47 127 0.0 0.0 0.00 0.00 0.00 59 1019.3
20200125001626 49 127 0.0 0.0 0.00 0.00 0.00 58 1019.2
20200125000129 51 127 0.0 0.0 0.00 0.00 0.00 53 1019.3
20200124234814 53 127 0.0 0.0 0.00 0.00 0.00 47 1019.4
20200124233126 56 205 0.0 0.0 0.00 0.00 0.00 43 1019.2
20200124231757 57 98 0.0 2.0 0.00 0.00 0.00 42 1019.3
20200124230220 59 242 0.0 1.0 0.00 0.00 0.00 40 1019.2
20200124224727 59 105 0.0 2.0 0.00 0.00 0.00 40 1019.3
20200124223151 60 117 0.0 1.0 0.00 0.00 0.00 40 1019.3
20200124221702 59 155 0.0 1.0 0.00 0.00 0.00 40 1019.5
20200124220120 59 77 0.0 4.0 0.00 0.00 0.00 40 1019.4
20200124214607 60 108 0.0 5.0 0.00 0.00 0.00 40 1019.5
20200124213147 60 15 0.0 3.0 0.00 0.00 0.00 41 1019.6
20200124211626 60 250 0.0 2.0 0.00 0.00 0.00 41 1019.6
20200124210128 60 241 0.0 3.0 0.00 0.00 0.00 41 1019.8
20200124204632 60 243 0.0 3.0 0.00 0.00 0.00 42 1019.9
20200124203125 60 276 0.0 3.0 0.00 0.00 0.00 45 1020.0
20200124201554 59 169 0.0 2.0 0.00 0.00 0.00 43 1020.0
20200124200122 59 91 0.0 4.0 0.00 0.00 0.00 46 1020.1
20200124194748 58 190 0.0 4.0 0.00 0.00 0.00 46 1020.4
20200124193138 58 228 0.0 3.0 0.00 0.00 0.00 49 1020.7
20200124191603 57 227 0.0 3.0 0.00 0.00 0.00 49 1020.9
20200124190219 55 215 0.0 7.0 0.00 0.00 0.00 50 1021.2
20200124184543 55 96 0.0 4.0 0.00 0.00 0.00 52 1021.5
20200124183109 55 275 0.0 7.0 0.00 0.00 0.00 53 1021.7
20200124181644 54 280 1.0 4.0 0.00 0.00 0.00 52 1021.9
20200124180014 53 115 0.0 3.0 0.00 0.00 0.00 55 1022.1
20200124174533 52 274 0.0 4.0 0.00 0.00 0.00 56 1022.4
20200124173006 51 118 1.0 6.0 0.00 0.00 0.00 55 1022.5
20200124171509 51 300 0.0 3.0 0.00 0.00 0.00 59 1022.6
20200124170203 50 195 1.0 5.0 0.00 0.00 0.00 58 1022.5
20200124170002 50 41 1.0 5.0 0.00 0.00 0.00 59 1022.6
20200124164746 50 331 1.0 5.0 0.00 0.00 0.00 60 1022.6
20200124163403 49 223 0.0 4.0 0.00 0.00 0.00 60 1022.5
20200124161741 48 211 0.0 3.0 0.00 0.00 0.00 61 1022.4
20200124160240 48 199 0.0 3.0 0.00 0.00 0.00 64 1022.5
20200124154631 47 154 1.0 3.0 0.00 0.00 0.00 65 1022.3
20200124153124 46 196 1.0 6.0 0.00 0.00 0.00 66 1022.2
20200124151714 45 186 1.0 5.0 0.00 0.00 0.00 68 1021.9
20200124150107 44 218 0.0 5.0 0.00 0.00 0.00 74 1021.9
20200124144730 42 215 0.0 3.0 0.00 0.00 0.00 77 1021.8
20200124143110 40 113 0.0 1.0 0.00 0.00 0.00 81 1021.8
20200124141551 38 202 0.0 1.0 0.00 0.00 0.00 84 1021.6
20200124140041 37 93 0.0 1.0 0.00 0.00 0.00 85 1021.6
20200124134600 36 77 0.0 1.0 0.00 0.00 0.00 86 1021.5
20200124133047 37 51 0.0 1.0 0.00 0.00 0.00 85 1021.3
20200124131707 37 213 0.0 0.0 0.00 0.00 0.00 84 1021.0
20200124130131 37 291 0.0 3.0 0.00 0.00 0.00 83 1021.0
20200124124603 37 136 0.0 1.0 0.00 0.00 0.00 84 1020.4
20200124123023 38 241 0.0 1.0 0.00 0.00 0.00 82 1020.4
20200124121527 38 173 0.0 3.0 0.00 0.00 0.00 82 1019.8
20200124120045 38 197 0.0 1.0 0.00 0.00 0.00 83 1019.8
20200124114520 37 162 0.0 2.0 0.00 0.00 0.00 84 1019.9
20200124113053 37 115 0.0 1.0 0.00 0.00 0.00 85 1019.7
20200124111521 37 264 0.0 1.0 0.00 0.00 0.00 86 1019.5
20200124110008 37 266 0.0 1.0 0.00 0.00 0.00 87 1019.5
20200124104534 36 250 0.0 0.0 0.00 0.01 0.00 89 1019.5
20200124103007 36 269 0.0 0.0 0.00 0.01 0.00 90 1019.4
20200124101514 36 269 0.0 0.0 0.00 0.01 0.00 89 1019.2
20200124100002 36 269 0.0 0.0 0.00 0.01 0.00 88 1019.2
20200124094636 37 269 0.0 0.0 0.00 0.01 0.00 85 1019.1
20200124093239 38 269 0.0 0.0 0.00 0.01 0.00 84 1019.1
20200124091734 39 269 0.0 2.0 0.00 0.01 0.00 83 1019.2
20200124090238 39 150 0.0 0.0 0.00 0.01 0.00 83 1019.0
20200124084652 40 45 0.0 1.0 0.00 0.01 0.00 83 1018.6
20200124083140 39 112 0.0 0.0 0.00 0.01 0.00 84 1018.7
20200124081654 38 120 0.0 1.0 0.00 0.01 0.00 86 1018.6
20200124080135 38 197 0.0 0.0 0.00 0.01 0.00 86 1018.5
20200124074717 38 196 0.0 0.0 0.00 0.02 0.00 86 1018.3
20200124073208 39 249 0.0 1.0 0.00 0.02 0.00 87 1017.9
20200124071650 38 94 0.0 0.0 0.00 0.02 0.00 89 1017.8
20200124070137 36 190 0.0 0.0 0.00 0.02 0.00 92 1017.9
20200124064657 36 237 0.0 0.0 0.00 0.03 0.00 92 1017.8
20200124063144 36 237 0.0 0.0 0.00 0.03 0.00 92 1017.9
20200124061647 36 237 0.0 1.0 0.00 0.03 0.00 93 1018.1
20200124060101 37 237 0.0 0.0 0.00 0.03 0.00 92 1018.2
20200124054550 37 237 0.0 0.0 0.00 0.03 0.03 92 1018.2
20200124053127 37 237 0.0 0.0 0.00 0.03 0.03 92 1018.3